Time;durP1;ratioP1;P1;durP2;ratioP2;P2;SDS_P1;SDS_P2;PMS_P1;PMS_P2;Temp;Humidity;BMP_temperature;BMP_pressure;BME280_temperature;BME280_humidity;BME280_pressure;Samples;Min_cycle;Max_cycle;Signal;HPM_P1;HPM_P2
2022/12/29 00:01:24;;;;;;;;;0.33;0.33;;;;;14.00;100.00;100113.69;5013257;28;45694;-77
2022/12/29 00:03:49;;;;;;;;;0.00;0.00;;;;;13.99;100.00;100110.09;5013063;28;45718;-78
2022/12/29 00:06:15;;;;;;;;;0.00;0.00;;;;;14.03;100.00;100108.50;5014551;28;45708;-78
2022/12/29 00:08:40;;;;;;;;;0.00;0.00;;;;;13.97;100.00;100101.25;5018324;28;45741;-78
2022/12/29 00:11:15;;;;;;;;;0.00;0.00;;;;;13.97;100.00;100084.69;5029783;28;45426;-79
2022/12/29 00:16:26;;;;;;;;;1.00;0.00;;;;;14.06;100.00;100101.69;5004226;28;45365;-77
2022/12/29 00:18:51;;;;;;;;;0.00;0.00;;;;;14.06;100.00;100091.47;5005755;28;45482;-78
2022/12/29 00:35:31;;;;;;;;;0.00;0.00;;;;;14.16;100.00;100095.50;5006414;28;45351;-77
2022/12/29 00:46:17;;;;;;;;;2.67;1.00;;;;;14.11;100.00;100110.03;5001351;28;45692;-81
2022/12/29 00:51:27;;;;;;;;;0.00;0.00;;;;;13.90;100.00;100082.09;5012920;28;45343;-79
2022/12/29 00:53:52;;;;;;;;;0.33;0.33;;;;;13.90;100.00;100084.84;4994236;28;45865;-80
2022/12/29 00:56:18;;;;;;;;;0.00;0.00;;;;;13.90;100.00;100090.34;5013582;28;45438;-80
2022/12/29 00:58:43;;;;;;;;;0.33;0.33;;;;;13.83;100.00;100086.94;5014050;28;45706;-79
2022/12/29 01:01:09;;;;;;;;;0.00;0.00;;;;;13.84;100.00;100091.34;4991025;28;48066;-77
2022/12/29 01:03:36;;;;;;;;;2.67;0.00;;;;;13.85;100.00;100093.03;5011526;28;45869;-77
2022/12/29 01:06:03;;;;;;;;;0.00;0.00;;;;;13.78;100.00;100086.81;4993400;28;45820;-78
2022/12/29 01:08:29;;;;;;;;;3.67;0.00;;;;;13.76;100.00;100091.75;5011372;28;45967;-80
2022/12/29 01:11:02;;;;;;;;;0.00;0.00;;;;;13.72;100.00;100076.78;5012642;28;46650;-77
2022/12/29 01:13:28;;;;;;;;;0.00;0.00;;;;;13.73;100.00;100089.50;4998012;28;45704;-79
2022/12/29 01:15:53;;;;;;;;;2.00;2.00;;;;;13.76;100.00;100078.81;5003778;28;45745;-79
2022/12/29 01:18:20;;;;;;;;;0.00;0.00;;;;;13.67;100.00;100068.44;4991138;28;45653;-78
2022/12/29 01:20:45;;;;;;;;;0.00;0.00;;;;;13.81;100.00;100085.50;5001368;28;47909;-79
2022/12/29 01:23:11;;;;;;;;;0.00;0.00;;;;;13.74;100.00;100058.94;5003593;28;45641;-80
2022/12/29 01:25:36;;;;;;;;;0.33;0.00;;;;;13.83;100.00;100075.91;5006325;28;45646;-78
2022/12/29 01:28:02;;;;;;;;;0.00;0.00;;;;;13.86;100.00;100078.16;4992077;28;46004;-77
2022/12/29 01:30:27;;;;;;;;;0.00;0.00;;;;;13.93;100.00;100087.09;5008566;28;45317;-77
2022/12/29 01:32:52;;;;;;;;;0.00;0.00;;;;;13.99;100.00;100088.03;4999303;28;45854;-79
2022/12/29 01:35:18;;;;;;;;;0.00;0.00;;;;;14.00;100.00;100083.38;5002447;28;45861;-79
2022/12/29 01:37:43;;;;;;;;;0.00;0.00;;;;;14.02;100.00;100092.22;5006633;28;45938;-77
2022/12/29 01:40:09;;;;;;;;;0.75;0.00;;;;;14.03;100.00;100082.88;4993208;28;47001;-78
2022/12/29 01:42:35;;;;;;;;;0.00;0.00;;;;;14.06;100.00;100087.91;4995493;28;45434;-78
2022/12/29 01:45:08;;;;;;;;;0.00;0.00;;;;;14.07;100.00;100086.78;5000292;28;45834;-79
2022/12/29 01:47:37;;;;;;;;;0.00;0.00;;;;;14.09;100.00;100087.41;4995440;28;45496;-78
2022/12/29 01:50:17;;;;;;;;;0.00;0.00;;;;;14.11;100.00;100086.03;4997530;28;46076;-78
2022/12/29 01:52:58;;;;;;;;;0.00;0.00;;;;;14.11;100.00;100085.22;4997620;28;45800;-77
2022/12/29 01:55:26;;;;;;;;;0.00;0.00;;;;;14.08;100.00;100088.47;4995938;28;45576;-78
2022/12/29 01:57:54;;;;;;;;;0.00;0.00;;;;;14.05;100.00;100091.72;4995023;28;45392;-78
2022/12/29 02:00:19;;;;;;;;;0.00;0.00;;;;;14.06;100.00;100076.88;5003907;28;45991;-78
2022/12/29 02:02:50;;;;;;;;;0.00;0.00;;;;;14.08;100.00;100074.69;5001298;28;45777;-77
2022/12/29 02:05:36;;;;;;;;;0.00;0.00;;;;;14.03;100.00;100074.59;4996119;28;45301;-78
2022/12/29 02:08:02;;;;;;;;;2.00;1.00;;;;;14.06;100.00;100077.69;5003177;28;45436;-77
2022/12/29 02:10:30;;;;;;;;;0.00;0.00;;;;;14.04;100.00;100073.50;4988833;28;45673;-78
2022/12/29 02:12:56;;;;;;;;;0.00;0.00;;;;;13.98;100.00;100091.03;5002356;28;45900;-76
2022/12/29 02:15:51;;;;;;;;;0.00;0.00;;;;;13.97;100.00;100084.69;4989601;28;45712;-77
2022/12/29 02:18:54;;;;;;;;;0.00;0.00;;;;;13.94;100.00;100091.53;5008193;28;45452;-76
2022/12/29 02:21:38;;;;;;;;;0.00;0.00;;;;;13.91;100.00;100105.00;4998056;28;46385;-77
2022/12/29 02:24:25;;;;;;;;;0.00;0.00;;;;;13.86;100.00;100105.72;5003707;28;45753;-78
2022/12/29 02:27:05;;;;;;;;;0.67;0.00;;;;;13.82;100.00;100092.66;4998555;28;45895;-77
2022/12/29 02:29:33;;;;;;;;;0.00;0.00;;;;;13.77;100.00;100101.66;5001446;28;45631;-78
2022/12/29 02:32:00;;;;;;;;;0.00;0.00;;;;;13.68;100.00;100079.22;4998084;28;45899;-78
2022/12/29 02:34:31;;;;;;;;;0.00;0.00;;;;;13.64;100.00;100078.03;4995352;28;46011;-78
2022/12/29 02:37:38;;;;;;;;;0.67;0.00;;;;;13.57;100.00;100061.63;4999365;28;45367;-77
2022/12/29 02:40:13;;;;;;;;;0.00;0.00;;;;;13.54;100.00;100075.88;4975563;28;45829;-77
2022/12/29 02:42:47;;;;;;;;;0.00;0.00;;;;;13.54;100.00;100070.38;5001486;28;46111;-76
2022/12/29 02:45:13;;;;;;;;;0.00;0.00;;;;;13.55;100.00;100083.09;4996061;28;46049;-77
2022/12/29 02:48:02;;;;;;;;;0.67;0.00;;;;;13.55;100.00;100076.75;5004709;28;45387;-77
2022/12/29 02:50:37;;;;;;;;;1.00;0.00;;;;;13.53;100.00;100085.25;5004759;28;45768;-77
2022/12/29 02:53:07;;;;;;;;;0.00;0.00;;;;;13.52;100.00;100089.09;4992534;28;46674;-77
2022/12/29 02:55:33;;;;;;;;;0.00;0.00;;;;;13.53;100.00;100084.41;5004418;28;45902;-78
2022/12/29 02:58:17;;;;;;;;;1.00;1.00;;;;;13.55;100.00;100080.31;4997184;28;45475;-78
2022/12/29 03:01:03;;;;;;;;;0.67;0.00;;;;;13.57;100.00;100097.44;5000182;28;45956;-76
2022/12/29 03:03:41;;;;;;;;;0.00;0.00;;;;;13.57;100.00;100094.69;4985029;28;46987;-76
2022/12/29 03:06:18;;;;;;;;;0.67;0.00;;;;;13.56;100.00;100087.50;5002895;28;45805;-77
2022/12/29 03:09:02;;;;;;;;;0.00;0.00;;;;;13.58;100.00;100076.25;4997614;28;45813;-78
2022/12/29 03:17:34;;;;;;;;;0.00;0.00;;;;;13.53;100.00;100074.25;4999061;28;45600;-78
2022/12/29 03:20:07;;;;;;;;;0.33;0.33;;;;;13.49;100.00;100094.22;4997017;28;45401;-76
2022/12/29 03:22:36;;;;;;;;;0.00;0.00;;;;;13.46;100.00;100095.56;4997149;28;45471;-76
2022/12/29 03:25:34;;;;;;;;;0.33;0.00;;;;;13.38;100.00;100099.56;4997621;28;45783;-76
2022/12/29 03:28:06;;;;;;;;;0.67;0.00;;;;;13.27;100.00;100077.50;4987045;28;45753;-76
2022/12/29 03:30:34;;;;;;;;;1.33;0.00;;;;;13.21;100.00;100091.16;4996549;28;45497;-74
2022/12/29 03:33:03;;;;;;;;;1.00;0.00;;;;;13.10;100.00;100085.66;4983902;28;45595;-74
2022/12/29 03:35:34;;;;;;;;;0.00;0.00;;;;;12.98;100.00;100089.28;5002670;28;45742;-76
2022/12/29 03:38:16;;;;;;;;;1.67;1.00;;;;;12.93;100.00;100102.91;5000374;28;45533;-74
2022/12/29 03:40:46;;;;;;;;;0.00;0.00;;;;;12.82;100.00;100084.53;5007220;28;45797;-77
2022/12/29 03:43:12;;;;;;;;;0.00;0.00;;;;;12.87;100.00;100087.38;4994746;28;45712;-78
2022/12/29 03:45:38;;;;;;;;;1.33;0.00;;;;;12.85;100.00;100095.03;4996687;28;45707;-77
2022/12/29 03:48:04;;;;;;;;;1.33;1.33;;;;;12.85;100.00;100090.38;5007594;28;45408;-76
2022/12/29 03:50:29;;;;;;;;;2.00;0.67;;;;;12.86;100.00;100097.56;5002004;28;45824;-75
2022/12/29 03:52:55;;;;;;;;;1.33;0.00;;;;;12.89;100.00;100096.25;5006988;28;45754;-76
2022/12/29 03:55:20;;;;;;;;;1.00;0.33;;;;;12.82;100.00;100096.34;5011259;28;45800;-78
2022/12/29 03:57:45;;;;;;;;;1.00;0.67;;;;;12.80;100.00;100090.25;5010857;28;45762;-75
2022/12/29 04:00:11;;;;;;;;;0.00;0.00;;;;;12.76;100.00;100091.81;4992351;28;45494;-75
2022/12/29 04:02:37;;;;;;;;;0.00;0.00;;;;;12.72;100.00;100107.13;4976338;28;45900;-74
2022/12/29 04:05:03;;;;;;;;;1.00;0.00;;;;;12.73;100.00;100110.72;4993246;28;46462;-75
2022/12/29 04:07:28;;;;;;;;;1.00;0.33;;;;;12.71;100.00;100111.78;4993305;28;45809;-76
2022/12/29 04:09:53;;;;;;;;;5.00;0.00;;;;;12.65;100.00;100093.50;4991676;28;45253;-76
2022/12/29 04:12:19;;;;;;;;;0.33;0.00;;;;;12.71;100.00;100113.72;4992197;28;45660;-77
2022/12/29 04:14:44;;;;;;;;;2.00;1.00;;;;;12.65;100.00;100109.13;4991249;28;45942;-77
2022/12/29 04:17:10;;;;;;;;;1.00;0.00;;;;;12.59;100.00;100102.69;4998723;28;45602;-76
2022/12/29 04:19:35;;;;;;;;;0.33;0.33;;;;;12.70;100.00;100120.28;5010433;28;45912;-75
2022/12/29 04:22:00;;;;;;;;;1.00;0.00;;;;;12.67;100.00;100126.28;5012017;28;45709;-77
2022/12/29 04:24:26;;;;;;;;;0.67;0.00;;;;;12.63;100.00;100133.31;5010430;28;45806;-77
2022/12/29 04:26:51;;;;;;;;;1.00;0.00;;;;;12.62;100.00;100134.38;5013882;28;45761;-77
2022/12/29 04:29:17;;;;;;;;;2.00;0.00;;;;;12.63;100.00;100147.06;5000985;28;45656;-74
2022/12/29 04:31:42;;;;;;;;;1.33;0.33;;;;;12.60;100.00;100142.03;5003392;28;45672;-74
2022/12/29 04:34:08;;;;;;;;;2.33;0.33;;;;;12.55;100.00;100140.00;4981165;28;48435;-75
2022/12/29 04:36:33;;;;;;;;;0.00;0.00;;;;;12.56;100.00;100151.84;4998548;28;45431;-75
2022/12/29 04:38:59;;;;;;;;;0.67;0.67;;;;;12.64;100.00;100148.75;5008144;28;45892;-75
2022/12/29 04:41:25;;;;;;;;;0.33;0.33;;;;;12.59;100.00;100129.34;4985565;28;46606;-75
2022/12/29 04:43:50;;;;;;;;;0.33;0.00;;;;;12.79;100.00;100145.53;5002370;28;46128;-75
2022/12/29 04:46:16;;;;;;;;;0.00;0.00;;;;;12.85;100.00;100150.09;4998074;28;45626;-75
2022/12/29 04:48:41;;;;;;;;;0.00;0.00;;;;;12.96;100.00;100157.50;4998650;28;45860;-76
2022/12/29 04:51:07;;;;;;;;;0.00;0.00;;;;;12.89;100.00;100143.03;5014683;28;45538;-76
2022/12/29 04:53:32;;;;;;;;;0.00;0.00;;;;;13.10;100.00;100162.75;5011689;28;45645;-74
2022/12/29 04:55:57;;;;;;;;;0.00;0.00;;;;;13.15;100.00;100147.19;5008055;28;45910;-74
2022/12/29 04:58:23;;;;;;;;;0.00;0.00;;;;;13.22;100.00;100150.66;5014124;28;45891;-75
2022/12/29 05:00:50;;;;;;;;;0.67;0.00;;;;;13.23;100.00;100152.34;5014092;28;45542;-75
2022/12/29 05:03:15;;;;;;;;;0.33;0.00;;;;;13.25;100.00;100163.94;5013275;28;46323;-75
2022/12/29 05:05:41;;;;;;;;;0.00;0.00;;;;;13.19;100.00;100170.41;4999326;28;45726;-75
2022/12/29 05:08:06;;;;;;;;;0.00;0.00;;;;;13.20;100.00;100176.75;5014908;28;45754;-75
2022/12/29 05:10:31;;;;;;;;;0.33;0.00;;;;;13.19;100.00;100173.19;5014057;28;45820;-74
2022/12/29 05:12:58;;;;;;;;;0.00;0.00;;;;;13.22;100.00;100167.19;5005644;28;46895;-75
2022/12/29 05:15:23;;;;;;;;;1.00;0.00;;;;;13.18;100.00;100160.47;4998687;28;46011;-74
2022/12/29 05:17:48;;;;;;;;;0.67;0.00;;;;;13.10;100.00;100165.50;4988873;28;45470;-74
2022/12/29 05:20:14;;;;;;;;;1.00;0.00;;;;;13.03;100.00;100160.97;5000425;28;45415;-75
2022/12/29 05:22:39;;;;;;;;;0.00;0.00;;;;;13.00;100.00;100177.97;5001889;28;46498;-75
2022/12/29 05:25:05;;;;;;;;;1.67;0.00;;;;;12.97;100.00;100169.34;5017370;28;45853;-74
2022/12/29 05:27:30;;;;;;;;;0.00;0.00;;;;;12.90;100.00;100172.22;5009224;28;45480;-74
2022/12/29 05:29:56;;;;;;;;;2.67;0.67;;;;;12.88;100.00;100177.13;5010419;28;45414;-74
2022/12/29 05:32:21;;;;;;;;;0.00;0.00;;;;;12.87;100.00;100181.81;5009828;28;46181;-74
2022/12/29 05:34:47;;;;;;;;;0.33;0.33;;;;;12.83;100.00;100188.00;5009650;28;45804;-74
2022/12/29 05:37:12;;;;;;;;;3.33;0.00;;;;;12.67;100.00;100162.84;5009324;28;45510;-74
2022/12/29 05:39:38;;;;;;;;;0.00;0.00;;;;;12.76;100.00;100188.13;5007287;28;45472;-74
2022/12/29 05:42:03;;;;;;;;;0.00;0.00;;;;;12.69;100.00;100173.63;4986087;28;47196;-74
2022/12/29 05:44:28;;;;;;;;;0.67;0.00;;;;;12.68;100.00;100178.31;4994203;28;45807;-76
2022/12/29 05:46:54;;;;;;;;;3.67;0.33;;;;;12.63;100.00;100191.09;4991067;28;45686;-75
2022/12/29 05:49:19;;;;;;;;;0.00;0.00;;;;;12.59;100.00;100185.22;5010176;28;45696;-75
2022/12/29 05:51:45;;;;;;;;;2.33;1.33;;;;;12.61;100.00;100194.06;5012069;28;48206;-74
2022/12/29 05:54:10;;;;;;;;;2.67;1.33;;;;;12.59;100.00;100187.13;5012327;28;45676;-76
2022/12/29 05:56:36;;;;;;;;;0.00;0.00;;;;;12.57;100.00;100189.28;4998547;28;45637;-74
2022/12/29 05:59:01;;;;;;;;;1.67;0.67;;;;;12.56;100.00;100193.09;5005050;28;45267;-75
2022/12/29 06:01:27;;;;;;;;;0.67;0.00;;;;;12.57;100.00;100192.84;5009753;28;45855;-73
2022/12/29 06:03:53;;;;;;;;;0.00;0.00;;;;;12.57;100.00;100203.03;5006017;28;45304;-75
2022/12/29 06:06:18;;;;;;;;;0.00;0.00;;;;;12.49;100.00;100196.78;5069682;23;45921;-76
2022/12/29 06:08:44;;;;;;;;;1.67;1.33;;;;;12.52;100.00;100207.31;4997628;28;45568;-75
2022/12/29 06:11:09;;;;;;;;;0.67;0.67;;;;;12.54;100.00;100209.84;5016246;28;48286;-77
2022/12/29 06:13:35;;;;;;;;;1.33;0.33;;;;;12.54;100.00;100220.84;5006808;28;45441;-76
2022/12/29 06:16:00;;;;;;;;;0.67;0.33;;;;;12.53;100.00;100220.00;4993344;28;46013;-75
2022/12/29 06:18:26;;;;;;;;;0.67;0.00;;;;;12.57;100.00;100219.53;5009960;28;46196;-75
2022/12/29 06:20:51;;;;;;;;;1.67;0.00;;;;;12.59;100.00;100231.13;5019758;28;45785;-75
2022/12/29 06:23:18;;;;;;;;;3.00;1.00;;;;;12.59;100.00;100231.13;4988986;28;45679;-85
2022/12/29 06:25:44;;;;;;;;;0.67;0.67;;;;;12.58;100.00;100232.22;4979843;28;45519;-74
2022/12/29 06:28:10;;;;;;;;;1.67;0.67;;;;;12.48;100.00;100214.34;5011348;28;45917;-76
2022/12/29 06:30:36;;;;;;;;;0.00;0.00;;;;;12.60;100.00;100236.41;5002000;28;45667;-74
2022/12/29 06:33:01;;;;;;;;;2.00;0.33;;;;;12.57;100.00;100241.53;4995917;28;45606;-75
2022/12/29 06:35:27;;;;;;;;;2.00;0.00;;;;;12.57;100.00;100252.53;5008300;28;45436;-75
2022/12/29 06:37:52;;;;;;;;;2.67;0.00;;;;;12.58;100.00;100254.22;4997009;28;45505;-76
2022/12/29 06:40:18;;;;;;;;;1.33;0.00;;;;;12.57;100.00;100255.28;4994039;28;45462;-75
2022/12/29 06:42:43;;;;;;;;;0.33;0.00;;;;;12.60;100.00;100263.91;5000491;28;45624;-75
2022/12/29 06:45:09;;;;;;;;;2.33;0.67;;;;;12.61;100.00;100271.09;5006389;28;45680;-75
2022/12/29 06:47:35;;;;;;;;;0.00;0.00;;;;;12.62;100.00;100283.78;5010514;28;45846;-74
2022/12/29 06:50:01;;;;;;;;;2.67;0.67;;;;;12.64;100.00;100283.56;5007897;28;45754;-73
2022/12/29 06:52:28;;;;;;;;;2.33;0.33;;;;;12.66;100.00;100282.22;4997051;28;45511;-74
2022/12/29 06:54:53;;;;;;;;;2.00;1.00;;;;;12.68;100.00;100273.75;5000848;28;45583;-72
2022/12/29 06:57:19;;;;;;;;;2.00;0.33;;;;;12.70;100.00;100299.13;5017252;28;45857;-73
2022/12/29 06:59:44;;;;;;;;;1.33;0.00;;;;;12.73;100.00;100278.56;5003150;28;46177;-72
2022/12/29 07:02:10;;;;;;;;;0.00;0.00;;;;;12.78;100.00;100282.25;5000005;28;45556;-73
2022/12/29 07:04:36;;;;;;;;;4.67;0.00;;;;;12.75;100.00;100288.25;5013336;28;45804;-74
2022/12/29 07:07:01;;;;;;;;;1.67;0.00;;;;;12.71;100.00;100270.53;5013947;28;46588;-72
2022/12/29 07:09:27;;;;;;;;;3.00;1.00;;;;;12.69;100.00;100286.44;5016131;28;45383;-70
2022/12/29 07:11:52;;;;;;;;;2.00;0.00;;;;;12.67;100.00;100299.59;5018910;28;45717;-72
2022/12/29 07:14:17;;;;;;;;;1.67;0.67;;;;;12.68;100.00;100295.78;5026705;28;45784;-73
2022/12/29 07:16:43;;;;;;;;;0.67;0.00;;;;;12.64;100.00;100291.81;5025698;28;45979;-75
2022/12/29 07:19:08;;;;;;;;;3.00;1.00;;;;;12.60;100.00;100293.34;5027911;28;46299;-74
2022/12/29 07:21:34;;;;;;;;;0.33;0.33;;;;;12.59;100.00;100283.41;5019642;28;45636;-75
2022/12/29 07:23:59;;;;;;;;;3.00;1.00;;;;;12.56;100.00;100305.88;5004038;28;45434;-73
2022/12/29 07:26:25;;;;;;;;;0.00;0.00;;;;;12.55;100.00;100296.78;5018918;28;45824;-75
2022/12/29 07:28:50;;;;;;;;;1.33;0.67;;;;;12.53;100.00;100305.28;5017886;28;45468;-75
2022/12/29 07:31:21;;;;;;;;;1.00;0.00;;;;;12.53;100.00;100307.19;5026844;28;45394;-74
2022/12/29 07:33:47;;;;;;;;;0.33;0.33;;;;;12.53;100.00;100305.28;5021844;28;45582;-74
2022/12/29 07:36:14;;;;;;;;;1.33;1.33;;;;;12.54;100.00;100311.59;5026656;28;45515;-73
2022/12/29 07:38:40;;;;;;;;;0.33;0.00;;;;;12.56;100.00;100308.63;5024332;28;45804;-72
2022/12/29 07:41:05;;;;;;;;;0.33;0.33;;;;;12.54;100.00;100325.38;5025144;28;45550;-73
2022/12/29 07:43:31;;;;;;;;;1.00;0.67;;;;;12.53;100.00;100335.53;5022949;28;45647;-72
2022/12/29 07:45:56;;;;;;;;;0.67;0.67;;;;;12.55;100.00;100332.56;5025096;28;45546;-73
2022/12/29 07:48:22;;;;;;;;;2.00;0.00;;;;;12.58;100.00;100339.50;5023570;28;46027;-73
2022/12/29 07:50:48;;;;;;;;;3.00;0.00;;;;;12.59;100.00;100343.91;5026493;28;45678;-73
2022/12/29 07:53:13;;;;;;;;;3.00;1.00;;;;;12.54;100.00;100348.22;5028965;28;45595;-74
2022/12/29 07:55:39;;;;;;;;;2.00;1.00;;;;;12.54;100.00;100348.22;5013947;28;45957;-75
2022/12/29 07:58:04;;;;;;;;;0.67;0.00;;;;;12.57;100.00;100363.41;5020229;28;45846;-74
2022/12/29 08:00:30;;;;;;;;;2.67;1.33;;;;;12.59;100.00;100365.91;5027679;28;46117;-74
2022/12/29 08:02:55;;;;;;;;;0.67;0.67;;;;;12.60;100.00;100373.13;5027928;28;45702;-75
2022/12/29 08:05:21;;;;;;;;;2.00;0.33;;;;;12.59;100.00;100365.91;5021454;28;45724;-74
2022/12/29 08:07:47;;;;;;;;;3.00;2.00;;;;;12.59;100.00;100371.44;5022971;28;45479;-75
2022/12/29 08:10:13;;;;;;;;;3.00;2.00;;;;;12.59;100.00;100371.44;5026317;28;45946;-72
2022/12/29 08:12:40;;;;;;;;;7.00;4.33;;;;;12.56;100.00;100369.13;5026522;28;45738;-75
2022/12/29 08:15:06;;;;;;;;;3.33;1.00;;;;;12.61;100.00;100380.31;5018471;28;45845;-72
2022/12/29 08:17:32;;;;;;;;;1.67;1.67;;;;;12.62;100.00;100391.06;5024284;28;46066;-81
2022/12/29 08:19:57;;;;;;;;;0.67;0.67;;;;;12.67;100.00;100401.38;5016181;28;45802;-75
2022/12/29 08:22:23;;;;;;;;;2.33;1.00;;;;;12.73;100.00;100380.38;5035591;28;45398;-74
2022/12/29 08:24:48;;;;;;;;;2.00;0.33;;;;;12.76;100.00;100391.75;5001008;28;47096;-74
2022/12/29 08:27:14;;;;;;;;;2.67;0.00;;;;;12.78;100.00;100389.56;5006898;28;48389;-75
2022/12/29 08:29:39;;;;;;;;;1.00;0.33;;;;;12.83;100.00;100394.38;5014835;28;45399;-77
2022/12/29 08:32:05;;;;;;;;;0.67;0.67;;;;;12.85;100.00;100401.34;5031852;28;45667;-77
2022/12/29 08:34:31;;;;;;;;;4.67;0.67;;;;;12.89;100.00;100399.81;5023115;28;45914;-78
2022/12/29 08:36:56;;;;;;;;;6.00;0.67;;;;;12.86;100.00;100394.78;5026254;28;45692;-75
2022/12/29 08:39:22;;;;;;;;;4.33;2.67;;;;;12.89;100.00;100408.06;5013757;28;45398;-79
2022/12/29 08:41:47;;;;;;;;;1.00;1.00;;;;;12.94;100.00;100412.88;5022207;28;45382;-77
2022/12/29 08:44:13;;;;;;;;;1.00;0.00;;;;;12.95;100.00;100421.97;5031522;28;45596;-75
2022/12/29 08:46:39;;;;;;;;;0.67;0.67;;;;;12.99;100.00;100424.00;5020911;28;46674;-75
2022/12/29 08:49:04;;;;;;;;;3.00;0.67;;;;;13.01;100.00;100432.06;5033720;28;45478;-75
2022/12/29 08:51:29;;;;;;;;;9.33;6.33;;;;;13.01;100.00;100426.56;5012229;28;45546;-76
2022/12/29 08:53:55;;;;;;;;;1.00;0.67;;;;;13.03;100.00;100435.41;5048525;28;45374;-74
2022/12/29 08:56:20;;;;;;;;;6.33;1.67;;;;;13.05;100.00;100436.00;5009343;28;46224;-76
2022/12/29 08:58:46;;;;;;;;;2.33;1.00;;;;;13.01;100.00;100440.31;5004511;28;45697;-74
2022/12/29 09:01:11;;;;;;;;;13.67;12.33;;;;;13.12;100.00;100453.28;5037644;28;45703;-76
2022/12/29 09:03:37;;;;;;;;;8.67;5.67;;;;;13.23;100.00;100455.25;5032016;28;45721;-73
2022/12/29 09:06:03;;;;;;;;;5.67;4.00;;;;;13.29;100.00;100458.13;5025700;28;45507;-78
2022/12/29 09:08:28;;;;;;;;;2.67;2.67;;;;;13.30;100.00;100444.13;5023856;28;45917;-76
2022/12/29 09:10:54;;;;;;;;;2.67;2.00;;;;;13.37;100.00;100464.19;5014487;28;45695;-76
2022/12/29 09:13:20;;;;;;;;;6.33;4.00;;;;;13.41;100.00;100457.16;5015522;28;45740;-74
2022/12/29 09:15:45;;;;;;;;;10.33;4.67;;;;;13.50;100.00;100449.38;5012360;28;45728;-74
2022/12/29 09:18:11;;;;;;;;;7.33;3.00;;;;;13.56;100.00;100453.94;5019036;28;45706;-73
2022/12/29 09:20:37;;;;;;;;;5.67;2.00;;;;;13.66;100.00;100455.28;4998573;28;45998;-76
2022/12/29 09:23:03;;;;;;;;;2.00;1.00;;;;;13.70;100.00;100448.22;5015538;28;45515;-75
2022/12/29 09:25:28;;;;;;;;;8.67;4.33;;;;;13.91;100.00;100460.59;5031311;28;46891;-74
2022/12/29 09:27:54;;;;;;;;;5.67;3.00;;;;;13.95;100.00;100467.28;5031756;28;45398;-75
2022/12/29 09:30:21;;;;;;;;;5.33;1.67;;;;;13.87;100.00;100465.72;5027323;28;45528;-75
2022/12/29 09:32:48;;;;;;;;;0.00;0.00;;;;;13.95;100.00;100472.81;5025725;28;45507;-74
2022/12/29 09:35:15;;;;;;;;;4.00;0.67;;;;;14.01;100.00;100482.91;5014544;28;46031;-75
2022/12/29 09:37:41;;;;;;;;;0.67;0.67;;;;;14.08;100.00;100482.78;5017352;28;45808;-74
2022/12/29 09:40:10;;;;;;;;;2.33;2.33;;;;;14.11;100.00;100485.06;5010173;28;45797;-76
2022/12/29 09:42:45;;;;;;;;;3.67;2.00;;;;;14.16;100.00;100479.69;5023628;28;45512;-75
2022/12/29 09:45:19;;;;;;;;;2.00;2.00;;;;;14.43;100.00;100484.69;5038048;28;47255;-75
2022/12/29 09:47:46;;;;;;;;;2.33;1.67;;;;;14.62;100.00;100483.50;5015826;28;45662;-77
2022/12/29 09:50:28;;;;;;;;;7.00;2.00;;;;;14.65;100.00;100498.75;5046622;28;45673;-74
2022/12/29 09:52:53;;;;;;;;;2.00;2.00;;;;;14.70;100.00;100507.16;4994669;28;46449;-74
2022/12/29 09:55:30;;;;;;;;;4.00;2.00;;;;;14.85;100.00;100500.25;5037616;28;46177;-75
2022/12/29 09:58:05;;;;;;;;;3.67;2.00;;;;;14.96;100.00;100511.28;5038750;28;45187;-76
2022/12/29 10:00:38;;;;;;;;;5.33;2.33;;;;;14.91;100.00;100497.38;5043777;28;45851;-76
2022/12/29 10:03:19;;;;;;;;;4.00;3.00;;;;;14.92;100.00;100510.09;5047014;28;45709;-76
2022/12/29 10:06:19;;;;;;;;;5.00;2.33;;;;;14.81;100.00;100519.25;5012578;28;45692;-72
2022/12/29 10:09:00;;;;;;;;;3.67;2.00;;;;;14.72;100.00;100516.03;4954032;28;46549;-74
2022/12/29 10:11:40;;;;;;;;;15.33;14.00;;;;;14.75;100.00;100509.19;4994204;28;47589;-72
2022/12/29 10:14:15;;;;;;;;;21.33;12.67;;;;;14.70;100.00;100507.16;4995529;28;46015;-72
2022/12/29 10:16:51;;;;;;;;;8.33;6.33;;;;;14.57;100.00;100519.25;5001583;28;46901;-73
2022/12/29 10:19:49;;;;;;;;;8.33;6.00;;;;;14.32;100.00;100511.22;4997742;28;45723;-74
2022/12/29 10:22:49;;;;;;;;;6.33;2.67;;;;;14.23;100.00;100532.78;4996005;28;45813;-74
2022/12/29 10:25:26;;;;;;;;;3.00;1.67;;;;;14.19;100.00;100523.34;4997541;28;45712;-73
2022/12/29 10:27:56;;;;;;;;;7.67;5.33;;;;;14.17;100.00;100528.22;5001697;28;47490;-73
2022/12/29 10:30:21;;;;;;;;;4.67;3.33;;;;;14.07;100.00;100511.44;4999983;28;45435;-73
2022/12/29 10:33:01;;;;;;;;;12.67;10.00;;;;;14.02;100.00;100525.09;5003992;28;45685;-74
2022/12/29 10:35:37;;;;;;;;;0.00;0.00;;;;;13.95;100.00;100520.53;4988993;28;46099;-74
2022/12/29 10:38:15;;;;;;;;;15.67;13.67;;;;;13.90;100.00;100505.78;4999814;28;46432;-74
2022/12/29 10:40:53;;;;;;;;;4.00;1.00;;;;;13.82;100.00;100508.84;4986359;28;45478;-76
2022/12/29 10:43:27;;;;;;;;;7.00;7.00;;;;;13.56;100.00;100491.66;5004682;28;45775;-74
2022/12/29 10:45:57;;;;;;;;;5.33;2.33;;;;;13.61;100.00;100505.59;5011351;28;45972;-74
2022/12/29 10:48:28;;;;;;;;;5.67;3.33;;;;;13.65;100.00;100523.31;4999637;28;46359;-73
2022/12/29 10:50:57;;;;;;;;;5.67;2.00;;;;;13.92;100.00;100517.41;5026433;28;45489;-73
2022/12/29 10:53:31;;;;;;;;;7.00;3.00;;;;;14.29;100.00;100523.56;5030465;28;45422;-73
2022/12/29 10:55:59;;;;;;;;;6.33;2.67;;;;;14.38;100.00;100514.94;5020375;28;45736;-73
2022/12/29 10:58:27;;;;;;;;;10.33;4.00;;;;;14.49;100.00;100511.34;5011361;28;46244;-74
2022/12/29 11:00:54;;;;;;;;;4.00;2.00;;;;;14.50;100.00;100487.34;5013580;28;45633;-73
2022/12/29 11:03:25;;;;;;;;;6.67;6.33;;;;;14.72;100.00;100518.78;5023262;28;45503;-75
2022/12/29 11:05:57;;;;;;;;;7.00;5.33;;;;;14.70;100.00;100507.16;4995991;28;45967;-74
2022/12/29 11:08:27;;;;;;;;;8.00;4.00;;;;;14.71;100.00;100516.25;5042889;28;45681;-74
2022/12/29 11:11:05;;;;;;;;;6.33;3.00;;;;;14.73;100.00;100514.94;5018798;28;45691;-73
2022/12/29 11:13:35;;;;;;;;;3.00;3.00;;;;;14.68;100.00;100520.34;5010573;28;45399;-73
2022/12/29 11:16:02;;;;;;;;;6.00;4.00;;;;;14.73;100.00;100509.44;5012773;28;45698;-74
2022/12/29 11:18:36;;;;;;;;;8.33;4.33;;;;;14.85;100.00;100520.44;5033823;28;46803;-75
2022/12/29 11:21:05;;;;;;;;;2.67;1.67;;;;;14.83;100.00;100506.03;5015990;28;46092;-77
2022/12/29 11:23:39;;;;;;;;;5.33;2.00;;;;;14.74;100.00;100516.59;5019630;28;45807;-73
2022/12/29 11:26:23;;;;;;;;;2.33;2.33;;;;;14.74;100.00;100518.53;5020628;28;45751;-74
2022/12/29 11:29:16;;;;;;;;;7.67;3.00;;;;;14.67;100.00;100529.72;5021572;28;45748;-76
2022/12/29 11:31:54;;;;;;;;;4.33;2.00;;;;;14.67;100.00;100531.63;5032112;28;45772;-75
2022/12/29 11:34:23;;;;;;;;;9.00;3.00;;;;;14.67;100.00;100528.88;5028898;28;45416;-74
2022/12/29 11:36:50;;;;;;;;;3.67;3.67;;;;;14.80;100.00;100529.44;5027446;28;45800;-74
2022/12/29 11:39:48;;;;;;;;;10.67;4.33;;;;;14.76;100.00;100524.66;5026467;28;45416;-72
2022/12/29 11:42:19;;;;;;;;;10.00;3.67;;;;;14.79;100.00;100529.69;5004211;28;46068;-73
2022/12/29 11:44:47;;;;;;;;;6.33;3.67;;;;;14.78;100.00;100528.03;5018781;28;45888;-75
2022/12/29 11:47:32;;;;;;;;;5.33;3.33;;;;;14.68;100.00;100514.00;5019264;28;45605;-75
2022/12/29 11:50:01;;;;;;;;;5.00;5.00;;;;;14.65;100.00;100507.88;5016766;28;45559;-74
2022/12/29 11:52:34;;;;;;;;;9.00;3.67;;;;;14.56;100.00;100501.00;5015137;28;45568;-75
2022/12/29 11:55:04;;;;;;;;;5.00;1.00;;;;;14.51;100.00;100503.66;5025936;28;45660;-75
2022/12/29 11:57:33;;;;;;;;;8.00;5.33;;;;;14.38;100.00;100512.19;5039247;28;45851;-76
2022/12/29 12:00:01;;;;;;;;;2.00;2.00;;;;;14.41;100.00;100517.22;5011526;28;48026;-74